sensor_id;sensor_type;location;lat;lon;timestamp;P1;durP1;ratioP1;P2;durP2;ratioP2
6566;SDS011;3317;43.994;22.878;2023-05-29T00:00:29;22.00;;;11.00;;
6566;SDS011;3317;43.994;22.878;2023-05-29T00:02:56;16.60;;;10.40;;
6566;SDS011;3317;43.994;22.878;2023-05-29T00:05:23;15.30;;;9.20;;
6566;SDS011;3317;43.994;22.878;2023-05-29T00:07:50;12.10;;;9.57;;
6566;SDS011;3317;43.994;22.878;2023-05-29T00:10:17;17.73;;;7.53;;
6566;SDS011;3317;43.994;22.878;2023-05-29T00:12:46;13.03;;;8.63;;
6566;SDS011;3317;43.994;22.878;2023-05-29T00:15:12;23.73;;;8.40;;
6566;SDS011;3317;43.994;22.878;2023-05-29T00:17:39;13.33;;;9.37;;
6566;SDS011;3317;43.994;22.878;2023-05-29T00:20:08;11.13;;;7.70;;
6566;SDS011;3317;43.994;22.878;2023-05-29T00:22:37;15.33;;;9.73;;
6566;SDS011;3317;43.994;22.878;2023-05-29T00:25:04;20.30;;;10.00;;
6566;SDS011;3317;43.994;22.878;2023-05-29T00:27:31;19.10;;;9.83;;
6566;SDS011;3317;43.994;22.878;2023-05-29T00:30:00;16.60;;;9.50;;
6566;SDS011;3317;43.994;22.878;2023-05-29T00:32:27;8.40;;;6.77;;
6566;SDS011;3317;43.994;22.878;2023-05-29T00:34:54;12.10;;;9.50;;
6566;SDS011;3317;43.994;22.878;2023-05-29T00:37:21;15.77;;;10.60;;
6566;SDS011;3317;43.994;22.878;2023-05-29T00:39:49;14.17;;;11.00;;
6566;SDS011;3317;43.994;22.878;2023-05-29T00:42:16;11.97;;;8.80;;
6566;SDS011;3317;43.994;22.878;2023-05-29T00:44:43;9.43;;;6.93;;
6566;SDS011;3317;43.994;22.878;2023-05-29T00:47:12;12.00;;;8.03;;
6566;SDS011;3317;43.994;22.878;2023-05-29T00:49:40;6.90;;;6.20;;
6566;SDS011;3317;43.994;22.878;2023-05-29T00:52:07;14.13;;;8.70;;
6566;SDS011;3317;43.994;22.878;2023-05-29T00:54:35;8.57;;;6.83;;
6566;SDS011;3317;43.994;22.878;2023-05-29T00:57:03;10.43;;;8.43;;
6566;SDS011;3317;43.994;22.878;2023-05-29T00:59:32;6.30;;;5.70;;
6566;SDS011;3317;43.994;22.878;2023-05-29T01:02:00;6.27;;;5.60;;
6566;SDS011;3317;43.994;22.878;2023-05-29T01:04:29;5.97;;;5.37;;
6566;SDS011;3317;43.994;22.878;2023-05-29T01:06:59;9.00;;;6.93;;
6566;SDS011;3317;43.994;22.878;2023-05-29T01:09:27;15.23;;;6.17;;
6566;SDS011;3317;43.994;22.878;2023-05-29T01:11:57;9.27;;;7.53;;
6566;SDS011;3317;43.994;22.878;2023-05-29T01:14:33;10.60;;;7.87;;
6566;SDS011;3317;43.994;22.878;2023-05-29T01:17:07;12.93;;;7.77;;
6566;SDS011;3317;43.994;22.878;2023-05-29T01:19:50;12.63;;;7.63;;
6566;SDS011;3317;43.994;22.878;2023-05-29T01:22:35;9.63;;;7.20;;
6566;SDS011;3317;43.994;22.878;2023-05-29T01:25:17;8.40;;;7.00;;
6566;SDS011;3317;43.994;22.878;2023-05-29T01:27:47;9.60;;;7.60;;
6566;SDS011;3317;43.994;22.878;2023-05-29T01:30:15;8.03;;;6.30;;
6566;SDS011;3317;43.994;22.878;2023-05-29T01:32:43;8.23;;;6.33;;
6566;SDS011;3317;43.994;22.878;2023-05-29T01:35:11;10.07;;;7.87;;
6566;SDS011;3317;43.994;22.878;2023-05-29T01:37:37;6.40;;;5.80;;
6566;SDS011;3317;43.994;22.878;2023-05-29T01:40:05;7.77;;;5.87;;
6566;SDS011;3317;43.994;22.878;2023-05-29T01:42:33;6.93;;;5.40;;
6566;SDS011;3317;43.994;22.878;2023-05-29T01:45:01;11.93;;;7.67;;
6566;SDS011;3317;43.994;22.878;2023-05-29T01:47:31;11.60;;;8.00;;
6566;SDS011;3317;43.994;22.878;2023-05-29T01:49:58;9.20;;;7.20;;
6566;SDS011;3317;43.994;22.878;2023-05-29T01:52:28;11.70;;;8.00;;
6566;SDS011;3317;43.994;22.878;2023-05-29T01:54:55;6.57;;;5.63;;
6566;SDS011;3317;43.994;22.878;2023-05-29T01:57:22;12.30;;;8.03;;
6566;SDS011;3317;43.994;22.878;2023-05-29T01:59:50;17.80;;;7.70;;
6566;SDS011;3317;43.994;22.878;2023-05-29T02:02:21;11.00;;;7.30;;
6566;SDS011;3317;43.994;22.878;2023-05-29T02:04:48;14.17;;;9.57;;
6566;SDS011;3317;43.994;22.878;2023-05-29T02:07:17;8.37;;;6.67;;
6566;SDS011;3317;43.994;22.878;2023-05-29T02:09:44;11.10;;;8.20;;
6566;SDS011;3317;43.994;22.878;2023-05-29T02:12:11;10.40;;;7.97;;
6566;SDS011;3317;43.994;22.878;2023-05-29T02:14:38;7.20;;;6.50;;
6566;SDS011;3317;43.994;22.878;2023-05-29T02:17:05;6.40;;;5.80;;
6566;SDS011;3317;43.994;22.878;2023-05-29T02:19:33;11.73;;;6.30;;
6566;SDS011;3317;43.994;22.878;2023-05-29T02:22:01;7.27;;;6.00;;
6566;SDS011;3317;43.994;22.878;2023-05-29T02:24:28;7.70;;;5.90;;
6566;SDS011;3317;43.994;22.878;2023-05-29T02:26:55;8.50;;;6.10;;
6566;SDS011;3317;43.994;22.878;2023-05-29T02:29:22;10.90;;;6.23;;
6566;SDS011;3317;43.994;22.878;2023-05-29T02:31:49;6.13;;;5.33;;
6566;SDS011;3317;43.994;22.878;2023-05-29T02:34:16;6.57;;;4.80;;
6566;SDS011;3317;43.994;22.878;2023-05-29T02:36:44;5.90;;;5.13;;
6566;SDS011;3317;43.994;22.878;2023-05-29T02:39:11;9.10;;;5.23;;
6566;SDS011;3317;43.994;22.878;2023-05-29T02:41:38;7.17;;;6.10;;
6566;SDS011;3317;43.994;22.878;2023-05-29T02:44:05;6.73;;;5.30;;
6566;SDS011;3317;43.994;22.878;2023-05-29T02:46:32;7.27;;;5.33;;
6566;SDS011;3317;43.994;22.878;2023-05-29T02:48:59;10.97;;;5.27;;
6566;SDS011;3317;43.994;22.878;2023-05-29T02:51:25;9.37;;;6.00;;
6566;SDS011;3317;43.994;22.878;2023-05-29T02:53:55;7.30;;;5.13;;
6566;SDS011;3317;43.994;22.878;2023-05-29T02:56:22;8.27;;;5.97;;
6566;SDS011;3317;43.994;22.878;2023-05-29T02:58:49;8.10;;;6.27;;
6566;SDS011;3317;43.994;22.878;2023-05-29T03:01:16;7.73;;;5.63;;
6566;SDS011;3317;43.994;22.878;2023-05-29T03:03:43;11.50;;;5.93;;
6566;SDS011;3317;43.994;22.878;2023-05-29T03:06:10;11.37;;;6.50;;
6566;SDS011;3317;43.994;22.878;2023-05-29T03:08:37;9.20;;;6.20;;
6566;SDS011;3317;43.994;22.878;2023-05-29T03:11:06;9.50;;;6.77;;
6566;SDS011;3317;43.994;22.878;2023-05-29T03:13:34;7.63;;;5.60;;
6566;SDS011;3317;43.994;22.878;2023-05-29T03:16:01;10.37;;;6.53;;
6566;SDS011;3317;43.994;22.878;2023-05-29T03:18:28;14.20;;;6.93;;
6566;SDS011;3317;43.994;22.878;2023-05-29T03:20:55;11.43;;;6.43;;
6566;SDS011;3317;43.994;22.878;2023-05-29T03:23:23;10.03;;;6.33;;
6566;SDS011;3317;43.994;22.878;2023-05-29T03:25:50;11.37;;;6.67;;
6566;SDS011;3317;43.994;22.878;2023-05-29T03:28:18;14.73;;;6.50;;
6566;SDS011;3317;43.994;22.878;2023-05-29T03:30:45;11.07;;;6.80;;
6566;SDS011;3317;43.994;22.878;2023-05-29T03:33:12;13.47;;;6.03;;
6566;SDS011;3317;43.994;22.878;2023-05-29T03:35:39;7.53;;;6.30;;
6566;SDS011;3317;43.994;22.878;2023-05-29T03:38:06;11.07;;;6.63;;
6566;SDS011;3317;43.994;22.878;2023-05-29T03:40:33;15.07;;;6.83;;
6566;SDS011;3317;43.994;22.878;2023-05-29T03:43:00;15.80;;;6.60;;
6566;SDS011;3317;43.994;22.878;2023-05-29T03:45:29;7.43;;;5.73;;
6566;SDS011;3317;43.994;22.878;2023-05-29T03:47:56;10.57;;;6.30;;
6566;SDS011;3317;43.994;22.878;2023-05-29T03:50:22;8.37;;;6.30;;
6566;SDS011;3317;43.994;22.878;2023-05-29T03:52:49;18.50;;;6.00;;
6566;SDS011;3317;43.994;22.878;2023-05-29T03:55:16;8.43;;;6.17;;
6566;SDS011;3317;43.994;22.878;2023-05-29T03:57:43;14.90;;;6.77;;
6566;SDS011;3317;43.994;22.878;2023-05-29T04:00:11;10.50;;;6.37;;
6566;SDS011;3317;43.994;22.878;2023-05-29T04:02:40;9.93;;;6.63;;
6566;SDS011;3317;43.994;22.878;2023-05-29T04:05:07;13.17;;;6.60;;
6566;SDS011;3317;43.994;22.878;2023-05-29T04:07:35;14.07;;;6.63;;
6566;SDS011;3317;43.994;22.878;2023-05-29T04:10:04;11.70;;;5.57;;
6566;SDS011;3317;43.994;22.878;2023-05-29T04:12:31;10.40;;;5.90;;
6566;SDS011;3317;43.994;22.878;2023-05-29T04:14:58;17.10;;;7.03;;
6566;SDS011;3317;43.994;22.878;2023-05-29T04:17:26;12.03;;;6.00;;
6566;SDS011;3317;43.994;22.878;2023-05-29T04:19:54;11.33;;;6.13;;
6566;SDS011;3317;43.994;22.878;2023-05-29T04:22:21;6.60;;;4.90;;
6566;SDS011;3317;43.994;22.878;2023-05-29T04:24:48;19.00;;;11.30;;
6566;SDS011;3317;43.994;22.878;2023-05-29T04:27:15;22.73;;;12.87;;
6566;SDS011;3317;43.994;22.878;2023-05-29T04:29:42;17.63;;;9.93;;
6566;SDS011;3317;43.994;22.878;2023-05-29T04:32:09;17.43;;;7.13;;
6566;SDS011;3317;43.994;22.878;2023-05-29T04:34:37;9.30;;;6.20;;
6566;SDS011;3317;43.994;22.878;2023-05-29T04:37:06;8.90;;;6.57;;
6566;SDS011;3317;43.994;22.878;2023-05-29T04:39:33;11.83;;;7.13;;
6566;SDS011;3317;43.994;22.878;2023-05-29T04:42:00;8.60;;;6.20;;
6566;SDS011;3317;43.994;22.878;2023-05-29T04:44:27;13.43;;;7.47;;
6566;SDS011;3317;43.994;22.878;2023-05-29T04:46:54;9.33;;;6.60;;
6566;SDS011;3317;43.994;22.878;2023-05-29T04:49:22;11.57;;;8.47;;
6566;SDS011;3317;43.994;22.878;2023-05-29T04:51:50;11.53;;;7.57;;
6566;SDS011;3317;43.994;22.878;2023-05-29T04:54:21;12.07;;;5.87;;
6566;SDS011;3317;43.994;22.878;2023-05-29T04:56:48;11.33;;;8.23;;
6566;SDS011;3317;43.994;22.878;2023-05-29T04:59:15;13.70;;;8.23;;
6566;SDS011;3317;43.994;22.878;2023-05-29T05:01:42;12.63;;;7.27;;
6566;SDS011;3317;43.994;22.878;2023-05-29T05:04:10;18.30;;;8.90;;
6566;SDS011;3317;43.994;22.878;2023-05-29T05:06:36;11.03;;;7.50;;
6566;SDS011;3317;43.994;22.878;2023-05-29T05:09:04;9.03;;;6.57;;
6566;SDS011;3317;43.994;22.878;2023-05-29T05:11:32;14.57;;;9.07;;
6566;SDS011;3317;43.994;22.878;2023-05-29T05:13:59;15.60;;;11.07;;
6566;SDS011;3317;43.994;22.878;2023-05-29T05:16:26;16.43;;;9.53;;
6566;SDS011;3317;43.994;22.878;2023-05-29T05:18:53;12.90;;;9.80;;
6566;SDS011;3317;43.994;22.878;2023-05-29T05:21:20;15.93;;;8.70;;
6566;SDS011;3317;43.994;22.878;2023-05-29T05:23:47;18.43;;;9.63;;
6566;SDS011;3317;43.994;22.878;2023-05-29T05:26:13;9.77;;;7.30;;
6566;SDS011;3317;43.994;22.878;2023-05-29T05:28:42;19.57;;;8.47;;
6566;SDS011;3317;43.994;22.878;2023-05-29T05:31:09;13.57;;;8.00;;
6566;SDS011;3317;43.994;22.878;2023-05-29T05:33:36;14.30;;;7.87;;
6566;SDS011;3317;43.994;22.878;2023-05-29T05:36:03;15.00;;;7.80;;
6566;SDS011;3317;43.994;22.878;2023-05-29T05:38:30;20.77;;;9.90;;
6566;SDS011;3317;43.994;22.878;2023-05-29T05:40:57;18.50;;;11.50;;
6566;SDS011;3317;43.994;22.878;2023-05-29T05:43:24;10.13;;;6.10;;
6566;SDS011;3317;43.994;22.878;2023-05-29T05:45:53;18.93;;;7.90;;
6566;SDS011;3317;43.994;22.878;2023-05-29T05:48:20;9.27;;;6.80;;
6566;SDS011;3317;43.994;22.878;2023-05-29T05:50:47;12.13;;;8.20;;
6566;SDS011;3317;43.994;22.878;2023-05-29T05:53:15;11.90;;;6.30;;
6566;SDS011;3317;43.994;22.878;2023-05-29T05:55:42;15.57;;;7.00;;
6566;SDS011;3317;43.994;22.878;2023-05-29T05:58:09;10.07;;;5.73;;
6566;SDS011;3317;43.994;22.878;2023-05-29T06:00:36;13.77;;;7.83;;
6566;SDS011;3317;43.994;22.878;2023-05-29T06:03:05;10.33;;;7.53;;
6566;SDS011;3317;43.994;22.878;2023-05-29T06:05:32;16.97;;;8.57;;
6566;SDS011;3317;43.994;22.878;2023-05-29T06:07:59;9.80;;;6.90;;
6566;SDS011;3317;43.994;22.878;2023-05-29T06:10:26;12.17;;;8.30;;
6566;SDS011;3317;43.994;22.878;2023-05-29T06:12:53;14.50;;;6.90;;
6566;SDS011;3317;43.994;22.878;2023-05-29T06:15:20;10.90;;;7.20;;
6566;SDS011;3317;43.994;22.878;2023-05-29T06:17:46;16.27;;;7.40;;
6566;SDS011;3317;43.994;22.878;2023-05-29T06:20:15;14.73;;;7.27;;
6566;SDS011;3317;43.994;22.878;2023-05-29T06:22:42;13.13;;;8.80;;
6566;SDS011;3317;43.994;22.878;2023-05-29T06:25:09;9.63;;;6.37;;
6566;SDS011;3317;43.994;22.878;2023-05-29T06:27:35;6.90;;;5.87;;
6566;SDS011;3317;43.994;22.878;2023-05-29T06:30:03;13.47;;;7.40;;
6566;SDS011;3317;43.994;22.878;2023-05-29T06:32:30;14.40;;;7.67;;
6566;SDS011;3317;43.994;22.878;2023-05-29T06:34:57;7.27;;;6.53;;
6566;SDS011;3317;43.994;22.878;2023-05-29T06:37:26;12.27;;;7.33;;
6566;SDS011;3317;43.994;22.878;2023-05-29T06:39:52;9.63;;;7.20;;
6566;SDS011;3317;43.994;22.878;2023-05-29T06:42:19;10.67;;;6.90;;
6566;SDS011;3317;43.994;22.878;2023-05-29T06:44:46;11.90;;;7.30;;
6566;SDS011;3317;43.994;22.878;2023-05-29T06:47:13;9.63;;;7.73;;
6566;SDS011;3317;43.994;22.878;2023-05-29T06:49:40;20.20;;;7.60;;
6566;SDS011;3317;43.994;22.878;2023-05-29T06:52:07;9.10;;;5.10;;
6566;SDS011;3317;43.994;22.878;2023-05-29T06:54:36;13.37;;;7.70;;
6566;SDS011;3317;43.994;22.878;2023-05-29T06:57:02;16.63;;;6.97;;
6566;SDS011;3317;43.994;22.878;2023-05-29T06:59:30;10.13;;;7.50;;
6566;SDS011;3317;43.994;22.878;2023-05-29T07:01:56;11.00;;;6.40;;
6566;SDS011;3317;43.994;22.878;2023-05-29T07:04:23;11.50;;;7.73;;
6566;SDS011;3317;43.994;22.878;2023-05-29T07:06:50;15.33;;;8.20;;
6566;SDS011;3317;43.994;22.878;2023-05-29T07:09:17;12.87;;;7.03;;
6566;SDS011;3317;43.994;22.878;2023-05-29T07:11:46;12.07;;;7.90;;
6566;SDS011;3317;43.994;22.878;2023-05-29T07:14:13;9.87;;;6.10;;
6566;SDS011;3317;43.994;22.878;2023-05-29T07:16:41;10.73;;;7.47;;
6566;SDS011;3317;43.994;22.878;2023-05-29T07:19:07;11.70;;;7.00;;
6566;SDS011;3317;43.994;22.878;2023-05-29T07:21:36;12.83;;;6.33;;
6566;SDS011;3317;43.994;22.878;2023-05-29T07:24:03;11.80;;;6.97;;
6566;SDS011;3317;43.994;22.878;2023-05-29T07:26:30;10.03;;;6.70;;
6566;SDS011;3317;43.994;22.878;2023-05-29T07:28:59;11.20;;;6.40;;
6566;SDS011;3317;43.994;22.878;2023-05-29T07:31:26;11.83;;;5.80;;
6566;SDS011;3317;43.994;22.878;2023-05-29T07:33:53;9.37;;;5.87;;
6566;SDS011;3317;43.994;22.878;2023-05-29T07:36:20;12.20;;;7.17;;
6566;SDS011;3317;43.994;22.878;2023-05-29T07:38:47;13.47;;;7.40;;
6566;SDS011;3317;43.994;22.878;2023-05-29T07:41:15;10.83;;;7.40;;
6566;SDS011;3317;43.994;22.878;2023-05-29T07:43:42;11.50;;;7.10;;
6566;SDS011;3317;43.994;22.878;2023-05-29T07:46:11;10.03;;;7.73;;
6566;SDS011;3317;43.994;22.878;2023-05-29T07:48:38;10.20;;;8.33;;
6566;SDS011;3317;43.994;22.878;2023-05-29T07:51:05;16.00;;;7.80;;
6566;SDS011;3317;43.994;22.878;2023-05-29T07:53:34;14.53;;;9.27;;
6566;SDS011;3317;43.994;22.878;2023-05-29T07:56:02;16.60;;;7.10;;
6566;SDS011;3317;43.994;22.878;2023-05-29T07:58:28;11.07;;;7.93;;
6566;SDS011;3317;43.994;22.878;2023-05-29T08:00:56;14.13;;;8.70;;
6566;SDS011;3317;43.994;22.878;2023-05-29T08:03:24;14.43;;;8.17;;
6566;SDS011;3317;43.994;22.878;2023-05-29T08:05:52;13.17;;;7.70;;
6566;SDS011;3317;43.994;22.878;2023-05-29T08:08:19;13.70;;;7.97;;
6566;SDS011;3317;43.994;22.878;2023-05-29T08:10:45;11.90;;;7.83;;
6566;SDS011;3317;43.994;22.878;2023-05-29T08:13:12;11.67;;;8.50;;
6566;SDS011;3317;43.994;22.878;2023-05-29T08:15:39;15.30;;;9.00;;
6566;SDS011;3317;43.994;22.878;2023-05-29T08:18:06;12.23;;;7.83;;
6566;SDS011;3317;43.994;22.878;2023-05-29T08:20:34;12.30;;;8.57;;
6566;SDS011;3317;43.994;22.878;2023-05-29T08:23:01;14.20;;;8.03;;
6566;SDS011;3317;43.994;22.878;2023-05-29T08:25:28;8.30;;;6.47;;
6566;SDS011;3317;43.994;22.878;2023-05-29T08:27:55;17.00;;;7.97;;
6566;SDS011;3317;43.994;22.878;2023-05-29T08:30:22;19.07;;;8.90;;
6566;SDS011;3317;43.994;22.878;2023-05-29T08:32:49;12.90;;;6.90;;
6566;SDS011;3317;43.994;22.878;2023-05-29T08:35:16;15.13;;;8.97;;
6566;SDS011;3317;43.994;22.878;2023-05-29T08:37:44;13.37;;;7.17;;
6566;SDS011;3317;43.994;22.878;2023-05-29T08:40:11;11.30;;;8.20;;
6566;SDS011;3317;43.994;22.878;2023-05-29T08:42:40;8.83;;;6.50;;
6566;SDS011;3317;43.994;22.878;2023-05-29T08:45:13;10.83;;;6.27;;
6566;SDS011;3317;43.994;22.878;2023-05-29T08:47:40;12.17;;;8.30;;
6566;SDS011;3317;43.994;22.878;2023-05-29T08:50:08;11.20;;;6.57;;
6566;SDS011;3317;43.994;22.878;2023-05-29T08:52:36;9.03;;;6.90;;
6566;SDS011;3317;43.994;22.878;2023-05-29T08:55:06;9.60;;;7.93;;
6566;SDS011;3317;43.994;22.878;2023-05-29T08:57:34;9.77;;;6.03;;
6566;SDS011;3317;43.994;22.878;2023-05-29T09:00:05;9.63;;;6.67;;
6566;SDS011;3317;43.994;22.878;2023-05-29T09:02:37;9.30;;;6.70;;
6566;SDS011;3317;43.994;22.878;2023-05-29T09:05:04;12.90;;;7.10;;
6566;SDS011;3317;43.994;22.878;2023-05-29T09:07:33;11.50;;;6.33;;
6566;SDS011;3317;43.994;22.878;2023-05-29T09:10:00;8.10;;;5.70;;
6566;SDS011;3317;43.994;22.878;2023-05-29T09:12:29;13.60;;;6.20;;
6566;SDS011;3317;43.994;22.878;2023-05-29T09:14:57;12.90;;;6.63;;
6566;SDS011;3317;43.994;22.878;2023-05-29T09:17:23;8.10;;;5.87;;
6566;SDS011;3317;43.994;22.878;2023-05-29T09:19:50;8.00;;;5.50;;
6566;SDS011;3317;43.994;22.878;2023-05-29T09:22:17;6.57;;;5.43;;
6566;SDS011;3317;43.994;22.878;2023-05-29T09:24:46;7.57;;;5.33;;
6566;SDS011;3317;43.994;22.878;2023-05-29T09:27:15;8.50;;;5.10;;
6566;SDS011;3317;43.994;22.878;2023-05-29T09:29:45;10.97;;;5.83;;
6566;SDS011;3317;43.994;22.878;2023-05-29T09:32:14;7.67;;;5.10;;
6566;SDS011;3317;43.994;22.878;2023-05-29T09:34:42;8.50;;;5.67;;
6566;SDS011;3317;43.994;22.878;2023-05-29T09:37:12;8.30;;;5.20;;
6566;SDS011;3317;43.994;22.878;2023-05-29T09:39:45;7.23;;;6.13;;
6566;SDS011;3317;43.994;22.878;2023-05-29T09:42:12;11.83;;;7.00;;
6566;SDS011;3317;43.994;22.878;2023-05-29T09:44:41;10.43;;;6.77;;
6566;SDS011;3317;43.994;22.878;2023-05-29T09:47:09;9.47;;;6.23;;
6566;SDS011;3317;43.994;22.878;2023-05-29T09:49:41;8.33;;;6.10;;
6566;SDS011;3317;43.994;22.878;2023-05-29T09:52:08;9.33;;;5.80;;
6566;SDS011;3317;43.994;22.878;2023-05-29T09:54:39;11.63;;;6.60;;
6566;SDS011;3317;43.994;22.878;2023-05-29T09:57:08;12.00;;;6.90;;
6566;SDS011;3317;43.994;22.878;2023-05-29T09:59:37;7.30;;;6.50;;
6566;SDS011;3317;43.994;22.878;2023-05-29T10:02:05;8.33;;;6.70;;
6566;SDS011;3317;43.994;22.878;2023-05-29T10:04:37;9.67;;;7.80;;
6566;SDS011;3317;43.994;22.878;2023-05-29T10:07:12;9.80;;;7.37;;
6566;SDS011;3317;43.994;22.878;2023-05-29T10:09:47;10.40;;;7.43;;
6566;SDS011;3317;43.994;22.878;2023-05-29T10:12:19;13.53;;;6.90;;
6566;SDS011;3317;43.994;22.878;2023-05-29T10:14:47;9.07;;;7.50;;
6566;SDS011;3317;43.994;22.878;2023-05-29T10:17:16;10.77;;;6.70;;
6566;SDS011;3317;43.994;22.878;2023-05-29T10:19:50;10.47;;;6.47;;
6566;SDS011;3317;43.994;22.878;2023-05-29T10:22:19;10.83;;;6.60;;
6566;SDS011;3317;43.994;22.878;2023-05-29T10:24:48;10.37;;;7.70;;
6566;SDS011;3317;43.994;22.878;2023-05-29T10:27:16;14.60;;;7.40;;
6566;SDS011;3317;43.994;22.878;2023-05-29T10:29:46;8.57;;;7.10;;
6566;SDS011;3317;43.994;22.878;2023-05-29T10:32:20;11.73;;;7.20;;
6566;SDS011;3317;43.994;22.878;2023-05-29T10:34:53;7.83;;;7.00;;
6566;SDS011;3317;43.994;22.878;2023-05-29T10:37:29;10.93;;;6.70;;
6566;SDS011;3317;43.994;22.878;2023-05-29T10:40:03;9.43;;;6.97;;
6566;SDS011;3317;43.994;22.878;2023-05-29T10:42:42;13.10;;;7.47;;
6566;SDS011;3317;43.994;22.878;2023-05-29T10:45:10;7.67;;;5.87;;
6566;SDS011;3317;43.994;22.878;2023-05-29T10:47:38;8.57;;;6.90;;
6566;SDS011;3317;43.994;22.878;2023-05-29T10:50:06;9.17;;;6.10;;
6566;SDS011;3317;43.994;22.878;2023-05-29T10:52:35;10.60;;;6.10;;
6566;SDS011;3317;43.994;22.878;2023-05-29T10:55:13;8.50;;;6.50;;
6566;SDS011;3317;43.994;22.878;2023-05-29T10:57:46;7.83;;;6.17;;
6566;SDS011;3317;43.994;22.878;2023-05-29T11:00:15;8.23;;;5.97;;
6566;SDS011;3317;43.994;22.878;2023-05-29T11:02:44;6.83;;;5.63;;
6566;SDS011;3317;43.994;22.878;2023-05-29T11:07:58;7.40;;;5.20;;
6566;SDS011;3317;43.994;22.878;2023-05-29T11:10:55;8.00;;;5.27;;
6566;SDS011;3317;43.994;22.878;2023-05-29T11:13:23;7.70;;;5.50;;
6566;SDS011;3317;43.994;22.878;2023-05-29T11:16:04;6.13;;;4.50;;
6566;SDS011;3317;43.994;22.878;2023-05-29T11:18:31;9.97;;;5.93;;
6566;SDS011;3317;43.994;22.878;2023-05-29T11:21:08;9.80;;;5.10;;
6566;SDS011;3317;43.994;22.878;2023-05-29T11:23:47;9.43;;;5.03;;
6566;SDS011;3317;43.994;22.878;2023-05-29T11:26:17;6.77;;;5.43;;
6566;SDS011;3317;43.994;22.878;2023-05-29T11:28:44;8.53;;;4.97;;
6566;SDS011;3317;43.994;22.878;2023-05-29T11:31:11;6.73;;;5.30;;
6566;SDS011;3317;43.994;22.878;2023-05-29T11:33:40;8.97;;;5.37;;
6566;SDS011;3317;43.994;22.878;2023-05-29T11:36:09;6.07;;;5.17;;
6566;SDS011;3317;43.994;22.878;2023-05-29T11:38:36;8.80;;;5.50;;
6566;SDS011;3317;43.994;22.878;2023-05-29T11:41:03;7.23;;;5.10;;
6566;SDS011;3317;43.994;22.878;2023-05-29T11:43:30;6.53;;;5.33;;
6566;SDS011;3317;43.994;22.878;2023-05-29T11:45:58;6.30;;;4.90;;
6566;SDS011;3317;43.994;22.878;2023-05-29T11:48:25;6.27;;;5.30;;
6566;SDS011;3317;43.994;22.878;2023-05-29T11:50:52;7.70;;;6.13;;
6566;SDS011;3317;43.994;22.878;2023-05-29T11:53:20;12.10;;;5.27;;
6566;SDS011;3317;43.994;22.878;2023-05-29T11:55:47;8.03;;;5.43;;
6566;SDS011;3317;43.994;22.878;2023-05-29T11:58:14;6.77;;;5.30;;
6566;SDS011;3317;43.994;22.878;2023-05-29T12:00:42;15.60;;;6.90;;
6566;SDS011;3317;43.994;22.878;2023-05-29T12:03:10;8.03;;;5.30;;
6566;SDS011;3317;43.994;22.878;2023-05-29T12:05:44;5.97;;;4.97;;
6566;SDS011;3317;43.994;22.878;2023-05-29T12:08:13;5.00;;;4.50;;
6566;SDS011;3317;43.994;22.878;2023-05-29T12:10:47;6.57;;;5.17;;
6566;SDS011;3317;43.994;22.878;2023-05-29T12:13:15;6.53;;;5.10;;
6566;SDS011;3317;43.994;22.878;2023-05-29T12:15:43;5.70;;;5.00;;
6566;SDS011;3317;43.994;22.878;2023-05-29T12:18:10;6.70;;;5.53;;
6566;SDS011;3317;43.994;22.878;2023-05-29T12:20:38;6.37;;;5.23;;
6566;SDS011;3317;43.994;22.878;2023-05-29T12:23:05;7.90;;;5.20;;
6566;SDS011;3317;43.994;22.878;2023-05-29T12:25:33;8.13;;;5.40;;
6566;SDS011;3317;43.994;22.878;2023-05-29T12:28:03;7.37;;;5.37;;
6566;SDS011;3317;43.994;22.878;2023-05-29T12:30:31;5.23;;;4.60;;
6566;SDS011;3317;43.994;22.878;2023-05-29T12:33:03;8.27;;;4.87;;
6566;SDS011;3317;43.994;22.878;2023-05-29T12:35:31;11.07;;;5.40;;
6566;SDS011;3317;43.994;22.878;2023-05-29T12:37:59;8.20;;;5.10;;
6566;SDS011;3317;43.994;22.878;2023-05-29T12:40:29;7.77;;;4.90;;
6566;SDS011;3317;43.994;22.878;2023-05-29T12:42:59;6.30;;;4.60;;
6566;SDS011;3317;43.994;22.878;2023-05-29T12:45:29;6.40;;;4.20;;
6566;SDS011;3317;43.994;22.878;2023-05-29T12:47:59;7.00;;;5.20;;
6566;SDS011;3317;43.994;22.878;2023-05-29T12:50:28;9.03;;;4.93;;
6566;SDS011;3317;43.994;22.878;2023-05-29T12:52:57;4.93;;;4.43;;
6566;SDS011;3317;43.994;22.878;2023-05-29T12:55:26;6.23;;;4.40;;
6566;SDS011;3317;43.994;22.878;2023-05-29T12:57:53;6.10;;;4.80;;
6566;SDS011;3317;43.994;22.878;2023-05-29T13:00:20;5.07;;;4.50;;
6566;SDS011;3317;43.994;22.878;2023-05-29T13:02:49;6.43;;;4.30;;
6566;SDS011;3317;43.994;22.878;2023-05-29T13:05:17;5.40;;;4.10;;
6566;SDS011;3317;43.994;22.878;2023-05-29T13:07:47;6.57;;;4.30;;
6566;SDS011;3317;43.994;22.878;2023-05-29T13:10:15;5.50;;;4.67;;
6566;SDS011;3317;43.994;22.878;2023-05-29T13:12:42;7.70;;;4.30;;
6566;SDS011;3317;43.994;22.878;2023-05-29T13:15:10;7.67;;;4.67;;
6566;SDS011;3317;43.994;22.878;2023-05-29T13:17:38;6.53;;;4.97;;
6566;SDS011;3317;43.994;22.878;2023-05-29T13:20:09;6.73;;;4.33;;
6566;SDS011;3317;43.994;22.878;2023-05-29T13:22:37;7.93;;;4.80;;
6566;SDS011;3317;43.994;22.878;2023-05-29T13:25:05;5.60;;;4.40;;
6566;SDS011;3317;43.994;22.878;2023-05-29T13:27:34;7.60;;;4.67;;
6566;SDS011;3317;43.994;22.878;2023-05-29T13:30:02;6.93;;;4.93;;
6566;SDS011;3317;43.994;22.878;2023-05-29T13:32:30;6.37;;;4.63;;
6566;SDS011;3317;43.994;22.878;2023-05-29T13:34:56;5.10;;;4.40;;
6566;SDS011;3317;43.994;22.878;2023-05-29T13:37:26;6.03;;;4.60;;
6566;SDS011;3317;43.994;22.878;2023-05-29T13:39:53;6.80;;;4.20;;
6566;SDS011;3317;43.994;22.878;2023-05-29T13:42:20;6.20;;;4.60;;
6566;SDS011;3317;43.994;22.878;2023-05-29T13:44:47;6.37;;;4.27;;
6566;SDS011;3317;43.994;22.878;2023-05-29T13:47:15;5.70;;;4.70;;
6566;SDS011;3317;43.994;22.878;2023-05-29T13:49:43;8.47;;;4.90;;
6566;SDS011;3317;43.994;22.878;2023-05-29T13:52:10;7.00;;;4.30;;
6566;SDS011;3317;43.994;22.878;2023-05-29T13:54:38;5.67;;;5.07;;
6566;SDS011;3317;43.994;22.878;2023-05-29T13:57:05;5.70;;;3.60;;
6566;SDS011;3317;43.994;22.878;2023-05-29T13:59:33;6.60;;;4.70;;
6566;SDS011;3317;43.994;22.878;2023-05-29T14:02:00;5.30;;;4.67;;
6566;SDS011;3317;43.994;22.878;2023-05-29T14:04:28;7.30;;;4.60;;
6566;SDS011;3317;43.994;22.878;2023-05-29T14:06:56;7.83;;;4.83;;
6566;SDS011;3317;43.994;22.878;2023-05-29T14:09:23;4.50;;;3.87;;
6566;SDS011;3317;43.994;22.878;2023-05-29T14:11:54;8.30;;;4.83;;
6566;SDS011;3317;43.994;22.878;2023-05-29T14:14:21;8.50;;;4.53;;
6566;SDS011;3317;43.994;22.878;2023-05-29T14:16:49;5.97;;;4.67;;
6566;SDS011;3317;43.994;22.878;2023-05-29T14:19:17;7.17;;;4.80;;
6566;SDS011;3317;43.994;22.878;2023-05-29T14:21:44;7.00;;;5.13;;
6566;SDS011;3317;43.994;22.878;2023-05-29T14:24:11;8.20;;;4.70;;
6566;SDS011;3317;43.994;22.878;2023-05-29T14:26:57;4.77;;;4.27;;
6566;SDS011;3317;43.994;22.878;2023-05-29T14:29:24;6.50;;;4.10;;
6566;SDS011;3317;43.994;22.878;2023-05-29T14:31:51;5.20;;;4.53;;
6566;SDS011;3317;43.994;22.878;2023-05-29T14:34:19;7.97;;;4.80;;
6566;SDS011;3317;43.994;22.878;2023-05-29T14:36:46;5.00;;;4.17;;
6566;SDS011;3317;43.994;22.878;2023-05-29T14:39:13;6.20;;;4.70;;
6566;SDS011;3317;43.994;22.878;2023-05-29T14:41:40;9.13;;;4.43;;
6566;SDS011;3317;43.994;22.878;2023-05-29T14:44:10;7.20;;;4.43;;
6566;SDS011;3317;43.994;22.878;2023-05-29T14:46:37;5.23;;;4.10;;
6566;SDS011;3317;43.994;22.878;2023-05-29T14:49:04;5.70;;;4.73;;
6566;SDS011;3317;43.994;22.878;2023-05-29T14:51:32;4.43;;;4.03;;
6566;SDS011;3317;43.994;22.878;2023-05-29T14:53:59;6.50;;;4.33;;
6566;SDS011;3317;43.994;22.878;2023-05-29T14:56:26;4.90;;;4.17;;
6566;SDS011;3317;43.994;22.878;2023-05-29T14:58:54;8.03;;;4.70;;
6566;SDS011;3317;43.994;22.878;2023-05-29T15:01:22;6.97;;;4.90;;
6566;SDS011;3317;43.994;22.878;2023-05-29T15:03:50;8.13;;;5.20;;